createdAt,value
2023-03-07T00:00:54.036Z,4.41
2023-03-07T00:03:21.046Z,4.35
2023-03-07T00:05:47.667Z,4.45
2023-03-07T00:08:14.239Z,4.43
2023-03-07T00:10:40.865Z,4.32
2023-03-07T00:13:08.879Z,4.33
2023-03-07T00:15:37.870Z,4.24
2023-03-07T00:18:04.923Z,4.24
2023-03-07T00:20:31.527Z,4.17
2023-03-07T00:22:58.113Z,4.16
2023-03-07T00:25:24.634Z,4.14
2023-03-07T00:27:51.252Z,4.14
2023-03-07T00:30:17.917Z,4.06
2023-03-07T00:32:44.444Z,4.04
2023-03-07T00:35:11.000Z,4.00
2023-03-07T00:37:37.516Z,3.97
2023-03-07T00:40:06.234Z,3.99
2023-03-07T00:42:32.857Z,4.03
2023-03-07T00:44:59.393Z,3.97
2023-03-07T00:47:25.904Z,3.89
2023-03-07T00:49:52.466Z,3.90
2023-03-07T00:52:19.082Z,3.90
2023-03-07T00:54:45.673Z,3.90
2023-03-07T00:57:12.230Z,3.80
2023-03-07T00:59:38.825Z,3.79
2023-03-07T01:02:05.657Z,3.77
2023-03-07T01:04:32.339Z,3.79
2023-03-07T01:06:58.893Z,3.78
2023-03-07T01:09:25.455Z,3.78
2023-03-07T01:11:52.078Z,3.73
2023-03-07T01:14:18.632Z,3.74
2023-03-07T01:16:45.263Z,3.74
2023-03-07T01:19:12.836Z,3.71
2023-03-07T01:21:42.690Z,3.64
2023-03-07T01:24:14.138Z,3.65
2023-03-07T01:26:40.860Z,3.63
2023-03-07T01:29:08.963Z,3.57
2023-03-07T01:31:35.752Z,3.52
2023-03-07T01:34:02.955Z,3.34
2023-03-07T01:36:33.278Z,3.47
2023-03-07T01:39:05.068Z,3.42
2023-03-07T01:41:32.497Z,3.39
2023-03-07T01:44:05.399Z,3.30
2023-03-07T01:46:43.240Z,3.33
2023-03-07T01:49:24.907Z,3.27
2023-03-07T01:51:58.315Z,3.19
2023-03-07T01:54:26.388Z,3.18
2023-03-07T01:56:53.565Z,3.06
2023-03-07T01:59:29.106Z,3.18
2023-03-07T02:01:57.797Z,3.15
2023-03-07T02:04:32.397Z,3.27
2023-03-07T02:07:02.700Z,3.36
2023-03-07T02:09:31.338Z,3.25
2023-03-07T02:12:00.607Z,3.25
2023-03-07T02:14:27.569Z,3.25
2023-03-07T02:16:54.548Z,3.28
2023-03-07T02:19:33.314Z,3.21
2023-03-07T02:22:09.629Z,3.18
2023-03-07T02:24:48.782Z,3.20
2023-03-07T02:27:15.492Z,3.19
2023-03-07T02:29:42.523Z,3.27
2023-03-07T02:32:09.426Z,3.14
2023-03-07T02:34:36.256Z,3.10
2023-03-07T02:37:11.886Z,3.08
2023-03-07T02:39:44.163Z,3.09
2023-03-07T02:42:18.745Z,3.19
2023-03-07T02:44:46.816Z,3.06
2023-03-07T02:47:14.035Z,3.06
2023-03-07T02:49:40.650Z,3.08
2023-03-07T02:52:07.238Z,3.18
2023-03-07T02:54:33.820Z,2.99
2023-03-07T02:57:00.438Z,2.95
2023-03-07T02:59:27.032Z,2.89
2023-03-07T03:01:53.792Z,2.91
2023-03-07T03:04:20.358Z,2.83
2023-03-07T03:06:46.914Z,2.81
2023-03-07T03:09:13.749Z,2.81
2023-03-07T03:11:40.387Z,2.76
2023-03-07T03:14:06.975Z,2.82
2023-03-07T03:16:33.577Z,2.75
2023-03-07T03:19:00.364Z,2.77
2023-03-07T03:21:27.100Z,2.79
2023-03-07T03:23:53.679Z,2.81
2023-03-07T03:26:20.192Z,2.83
2023-03-07T03:28:46.780Z,2.80
2023-03-07T03:31:16.681Z,2.82
2023-03-07T03:33:44.646Z,2.70
2023-03-07T03:36:14.752Z,2.71
2023-03-07T03:38:41.672Z,2.67
2023-03-07T03:41:11.390Z,2.72
2023-03-07T03:43:38.009Z,2.71
2023-03-07T03:46:04.921Z,2.72
2023-03-07T03:48:31.536Z,2.70
2023-03-07T03:51:12.201Z,2.72
2023-03-07T03:53:40.069Z,2.72
2023-03-07T03:56:10.016Z,2.78
2023-03-07T03:58:36.740Z,2.69
2023-03-07T04:01:05.899Z,2.70
2023-03-07T04:03:34.240Z,2.67
2023-03-07T04:06:06.457Z,2.66
2023-03-07T04:08:34.239Z,2.70
2023-03-07T04:11:01.426Z,2.69
2023-03-07T04:13:28.577Z,2.74
2023-03-07T04:15:55.085Z,2.63
2023-03-07T04:18:22.725Z,2.51
2023-03-07T04:20:50.746Z,2.54
2023-03-07T04:23:18.826Z,2.59
2023-03-07T04:25:55.946Z,2.63
2023-03-07T04:28:24.764Z,2.58
2023-03-07T04:30:53.162Z,2.47
2023-03-07T04:33:20.562Z,2.50
2023-03-07T04:35:47.263Z,2.50
2023-03-07T04:38:15.707Z,2.35
2023-03-07T04:40:42.275Z,2.31
2023-03-07T04:43:08.816Z,2.34
2023-03-07T04:45:39.978Z,2.34
2023-03-07T04:48:06.972Z,2.25
2023-03-07T04:50:33.583Z,2.16
2023-03-07T04:53:00.150Z,2.17
2023-03-07T04:55:26.720Z,2.20
2023-03-07T04:57:53.337Z,2.24
2023-03-07T05:00:20.883Z,2.36
2023-03-07T05:02:48.632Z,2.39
2023-03-07T05:05:16.882Z,2.42
2023-03-07T05:07:44.418Z,2.40
2023-03-07T05:10:11.702Z,2.42
2023-03-07T05:12:38.296Z,2.47
2023-03-07T05:15:05.352Z,2.35
2023-03-07T05:17:31.923Z,2.30
2023-03-07T05:19:58.441Z,2.25
2023-03-07T05:22:25.043Z,2.21
2023-03-07T05:24:52.105Z,2.11
2023-03-07T05:27:18.660Z,2.08
2023-03-07T05:29:45.257Z,2.10
2023-03-07T05:32:11.913Z,2.08
2023-03-07T05:34:38.542Z,2.11
2023-03-07T05:37:05.269Z,2.30
2023-03-07T05:39:31.881Z,2.30
2023-03-07T05:41:58.468Z,2.44
2023-03-07T05:44:24.983Z,2.32
2023-03-07T05:46:52.021Z,2.27
2023-03-07T05:49:18.809Z,2.20
2023-03-07T05:51:45.326Z,2.19
2023-03-07T05:54:11.878Z,2.06
2023-03-07T05:56:38.381Z,1.99
2023-03-07T05:59:07.751Z,2.04
2023-03-07T06:01:34.736Z,2.05
2023-03-07T06:04:01.452Z,2.04
2023-03-07T06:06:28.090Z,2.09
2023-03-07T06:08:54.905Z,2.13
2023-03-07T06:11:21.430Z,2.21
2023-03-07T06:13:47.943Z,2.26
2023-03-07T06:16:14.544Z,2.25
2023-03-07T06:18:41.109Z,2.21
2023-03-07T06:21:09.006Z,2.23
2023-03-07T06:23:36.851Z,2.24
2023-03-07T06:26:04.939Z,2.25
2023-03-07T06:28:32.928Z,2.50
2023-03-07T06:30:59.931Z,2.42
2023-03-07T06:33:26.652Z,2.37
2023-03-07T06:35:53.264Z,2.38
2023-03-07T06:38:19.843Z,2.45
2023-03-07T06:40:55.640Z,2.41
2023-03-07T06:43:22.525Z,2.43
2023-03-07T06:45:49.122Z,2.44
2023-03-07T06:48:15.780Z,2.35
2023-03-07T06:50:42.280Z,2.40
2023-03-07T06:53:08.950Z,2.35
2023-03-07T06:55:35.785Z,2.38
2023-03-07T06:58:02.415Z,2.26
2023-03-07T07:00:29.231Z,2.23
2023-03-07T07:02:56.543Z,2.29
2023-03-07T07:05:23.237Z,2.33
2023-03-07T07:07:49.845Z,2.33
2023-03-07T07:10:16.592Z,2.29
2023-03-07T07:12:43.258Z,2.30
2023-03-07T07:15:10.344Z,2.55
2023-03-07T07:17:38.928Z,2.64
2023-03-07T07:20:06.971Z,2.59
2023-03-07T07:22:34.008Z,2.61
2023-03-07T07:25:00.571Z,2.65
2023-03-07T07:27:28.962Z,2.67
2023-03-07T07:29:55.559Z,2.72
2023-03-07T07:32:22.277Z,2.80
2023-03-07T07:34:48.959Z,2.73
2023-03-07T07:37:15.547Z,2.87
2023-03-07T07:39:43.946Z,2.85
2023-03-07T07:42:11.827Z,2.91
2023-03-07T07:44:38.643Z,3.12
2023-03-07T07:47:05.420Z,3.13
2023-03-07T07:49:32.020Z,3.25
2023-03-07T07:51:58.814Z,3.31
2023-03-07T07:54:25.807Z,3.43
2023-03-07T07:56:52.409Z,3.52
2023-03-07T07:59:19.046Z,3.61
2023-03-07T08:01:45.932Z,3.74
2023-03-07T08:04:12.546Z,3.79
2023-03-07T08:06:39.820Z,3.79
2023-03-07T08:09:06.681Z,3.95
2023-03-07T08:11:33.337Z,4.09
2023-03-07T08:14:02.470Z,4.15
2023-03-07T08:16:29.254Z,4.20
2023-03-07T08:18:57.331Z,4.17
2023-03-07T08:21:25.584Z,4.23
2023-03-07T08:23:56.151Z,4.30
2023-03-07T08:26:23.616Z,4.32
2023-03-07T08:28:50.281Z,4.55
2023-03-07T08:31:25.846Z,4.45
2023-03-07T08:33:53.237Z,4.54
2023-03-07T08:36:20.373Z,4.71
2023-03-07T08:38:54.370Z,4.73
2023-03-07T08:41:22.759Z,4.78
2023-03-07T08:43:49.674Z,4.80
2023-03-07T08:46:16.421Z,4.79
2023-03-07T08:48:43.046Z,4.95
2023-03-07T08:51:12.774Z,5.20
2023-03-07T08:53:39.355Z,5.24
2023-03-07T08:56:07.749Z,5.42
2023-03-07T08:58:34.560Z,5.46
2023-03-07T09:01:01.460Z,5.55
2023-03-07T09:03:28.092Z,5.73
2023-03-07T09:05:54.679Z,5.73
2023-03-07T09:08:21.413Z,5.88
2023-03-07T09:10:48.039Z,6.00
2023-03-07T09:13:15.689Z,5.98
2023-03-07T09:15:42.948Z,6.02
2023-03-07T09:18:10.580Z,6.08
2023-03-07T09:20:40.948Z,6.19
2023-03-07T09:23:08.223Z,6.17
2023-03-07T09:25:36.350Z,6.34
2023-03-07T09:28:04.858Z,6.31
2023-03-07T09:30:31.363Z,6.51
2023-03-07T09:32:58.140Z,6.75
2023-03-07T09:35:25.255Z,6.82
2023-03-07T09:37:51.894Z,7.01
2023-03-07T09:40:23.506Z,7.07
2023-03-07T09:43:19.066Z,7.11
2023-03-07T09:46:10.347Z,7.27
2023-03-07T09:49:06.124Z,7.28
2023-03-07T09:51:40.561Z,7.48
2023-03-07T09:54:21.622Z,7.61
2023-03-07T09:56:57.090Z,7.85
2023-03-07T09:59:41.143Z,8.03
2023-03-07T10:02:19.749Z,8.16
2023-03-07T10:05:21.017Z,8.43
2023-03-07T10:07:47.691Z,8.55
2023-03-07T10:10:40.164Z,8.58
2023-03-07T10:13:21.870Z,8.86
2023-03-07T10:15:52.605Z,8.96
2023-03-07T10:18:38.014Z,9.10
2023-03-07T10:21:33.170Z,9.11
2023-03-07T10:24:09.116Z,9.36
2023-03-07T10:26:47.850Z,9.63
2023-03-07T10:29:18.483Z,9.91
2023-03-07T10:31:52.050Z,10.15
2023-03-07T10:34:29.623Z,10.30
2023-03-07T10:37:16.698Z,10.52
2023-03-07T10:39:50.207Z,10.74
2023-03-07T10:42:19.076Z,10.78
2023-03-07T10:44:48.915Z,10.84
2023-03-07T10:47:26.862Z,10.99
2023-03-07T10:50:00.393Z,11.09
2023-03-07T10:52:39.715Z,11.01
2023-03-07T10:55:33.498Z,11.00
2023-03-07T10:58:32.361Z,10.88
2023-03-07T11:01:08.185Z,11.04
2023-03-07T11:03:58.711Z,11.17
2023-03-07T11:06:40.281Z,10.95
2023-03-07T11:09:27.866Z,10.69
2023-03-07T11:11:59.862Z,10.73
2023-03-07T11:14:28.842Z,10.63
2023-03-07T11:16:59.252Z,10.63
2023-03-07T11:19:42.052Z,10.86
2023-03-07T11:22:34.285Z,10.85
2023-03-07T11:25:10.711Z,10.91
2023-03-07T11:27:46.850Z,10.80
2023-03-07T11:30:20.880Z,10.74
2023-03-07T11:33:02.887Z,10.72
2023-03-07T11:35:43.064Z,10.76
2023-03-07T11:38:34.348Z,10.62
2023-03-07T11:41:11.772Z,10.62
2023-03-07T11:43:56.726Z,10.61
2023-03-07T11:46:55.117Z,10.61
2023-03-07T11:49:59.537Z,10.58
2023-03-07T11:53:08.717Z,10.59
2023-03-07T11:56:05.125Z,10.72
2023-03-07T11:59:07.065Z,10.81
2023-03-07T12:01:59.279Z,10.79
2023-03-07T12:04:37.763Z,10.80
2023-03-07T12:07:19.462Z,10.49
2023-03-07T12:09:55.184Z,10.32
2023-03-07T12:12:39.756Z,10.20
2023-03-07T12:15:39.012Z,9.93
2023-03-07T12:18:18.096Z,9.24
2023-03-07T12:20:47.574Z,8.44
2023-03-07T12:23:20.176Z,8.12
2023-03-07T12:25:52.541Z,8.25
2023-03-07T12:28:32.641Z,8.12
2023-03-07T12:31:26.942Z,7.84
2023-03-07T12:33:59.543Z,7.71
2023-03-07T12:36:45.066Z,7.80
2023-03-07T12:39:42.512Z,7.72
2023-03-07T12:42:35.129Z,7.83
2023-03-07T12:45:11.352Z,7.87
2023-03-07T12:47:50.489Z,7.81
2023-03-07T12:50:41.507Z,7.80
2023-03-07T12:53:38.041Z,7.88
2023-03-07T12:56:16.701Z,7.83
2023-03-07T12:58:59.314Z,7.72
2023-03-07T13:01:37.088Z,7.66
2023-03-07T13:04:06.478Z,7.69
2023-03-07T13:06:34.448Z,7.58
2023-03-07T13:09:04.086Z,7.60
2023-03-07T13:11:34.308Z,7.47
2023-03-07T13:14:05.402Z,7.40
2023-03-07T13:16:46.673Z,7.48
2023-03-07T13:19:35.294Z,7.20
2023-03-07T13:22:21.782Z,7.25
2023-03-07T13:24:49.791Z,7.31
2023-03-07T13:27:30.843Z,7.17
2023-03-07T13:30:12.537Z,7.26
2023-03-07T13:32:48.434Z,7.18
2023-03-07T13:35:36.918Z,7.09
2023-03-07T13:38:15.507Z,6.83
2023-03-07T13:40:45.052Z,6.72
2023-03-07T13:43:54.624Z,6.65
2023-03-07T13:46:42.264Z,6.64
2023-03-07T13:49:08.821Z,6.63
2023-03-07T13:51:35.407Z,6.60
2023-03-07T13:54:11.563Z,6.36
2023-03-07T13:56:42.320Z,6.34
2023-03-07T13:59:14.657Z,6.24
2023-03-07T14:01:55.831Z,6.22
2023-03-07T14:04:39.472Z,6.16
2023-03-07T14:07:26.285Z,6.22
2023-03-07T14:10:21.801Z,6.14
2023-03-07T14:13:07.819Z,6.23
2023-03-07T14:15:52.451Z,6.18
2023-03-07T14:18:43.781Z,6.20
2023-03-07T14:21:38.656Z,6.19
2023-03-07T14:24:11.052Z,6.27
2023-03-07T14:26:50.201Z,6.27
2023-03-07T14:29:22.236Z,6.23
2023-03-07T14:31:51.437Z,6.29
2023-03-07T14:34:24.098Z,6.30
2023-03-07T14:36:55.928Z,6.30
2023-03-07T14:39:23.829Z,6.41
2023-03-07T14:42:07.388Z,6.62
2023-03-07T14:44:45.648Z,6.76
2023-03-07T14:47:47.348Z,6.85
2023-03-07T14:50:20.337Z,6.91
2023-03-07T14:52:48.348Z,6.93
2023-03-07T14:55:21.426Z,6.90
2023-03-07T14:57:53.118Z,7.01
2023-03-07T15:00:29.622Z,7.04
2023-03-07T15:02:57.573Z,7.04
2023-03-07T15:05:27.744Z,7.14
2023-03-07T15:07:55.113Z,7.28
2023-03-07T15:10:37.759Z,7.47
2023-03-07T15:13:07.821Z,7.45
2023-03-07T15:15:48.956Z,7.34
2023-03-07T15:18:27.472Z,7.35
2023-03-07T15:20:56.588Z,7.36
2023-03-07T15:23:27.605Z,7.17
2023-03-07T15:26:02.040Z,7.25
2023-03-07T15:28:33.599Z,7.27
2023-03-07T15:31:00.806Z,7.25
2023-03-07T15:33:30.754Z,7.12
2023-03-07T15:36:12.391Z,6.94
2023-03-07T15:38:41.453Z,6.95
2023-03-07T15:41:26.536Z,7.05
2023-03-07T15:44:11.193Z,7.13
2023-03-07T15:46:51.175Z,7.16
2023-03-07T15:49:26.061Z,7.13
2023-03-07T15:51:59.165Z,7.02
2023-03-07T15:54:33.525Z,7.09
2023-03-07T15:57:04.820Z,7.13
2023-03-07T15:59:32.988Z,7.09
2023-03-07T16:02:34.966Z,7.02
2023-03-07T16:05:29.037Z,7.05
2023-03-07T16:07:57.586Z,7.09
2023-03-07T16:10:28.309Z,7.05
2023-03-07T16:12:55.767Z,6.92
2023-03-07T16:15:24.053Z,6.99
2023-03-07T16:17:55.049Z,6.99
2023-03-07T16:20:25.140Z,7.01
2023-03-07T16:22:52.318Z,7.15
2023-03-07T16:25:20.739Z,7.11
2023-03-07T16:27:52.713Z,7.10
2023-03-07T16:30:22.857Z,7.28
2023-03-07T16:32:50.020Z,7.19
2023-03-07T16:35:25.801Z,7.22
2023-03-07T16:37:53.667Z,7.14
2023-03-07T16:40:20.851Z,7.16
2023-03-07T16:42:50.641Z,7.13
2023-03-07T16:45:24.767Z,7.09
2023-03-07T16:47:53.820Z,7.19
2023-03-07T16:50:24.095Z,7.16
2023-03-07T16:52:50.601Z,7.20
2023-03-07T16:55:17.734Z,7.25
2023-03-07T16:57:47.494Z,7.26
2023-03-07T17:00:17.435Z,7.23
2023-03-07T17:02:45.376Z,7.30
2023-03-07T17:05:20.912Z,7.19
2023-03-07T17:07:47.572Z,7.24
2023-03-07T17:10:14.615Z,7.21
2023-03-07T17:12:42.606Z,7.21
2023-03-07T17:15:13.907Z,7.20
2023-03-07T17:17:40.975Z,7.20
2023-03-07T17:20:08.333Z,7.25
2023-03-07T17:22:35.034Z,7.25
2023-03-07T17:25:01.626Z,7.20
2023-03-07T17:27:28.443Z,7.21
2023-03-07T17:29:55.213Z,7.22
2023-03-07T17:32:22.011Z,7.24
2023-03-07T17:34:48.631Z,7.29
2023-03-07T17:37:15.326Z,7.35
2023-03-07T17:39:42.531Z,7.29
2023-03-07T17:42:09.618Z,7.32
2023-03-07T17:44:36.259Z,7.36
2023-03-07T17:47:02.905Z,7.39
2023-03-07T17:49:34.857Z,7.35
2023-03-07T17:52:02.456Z,7.35
2023-03-07T17:54:31.149Z,7.37
2023-03-07T17:56:57.745Z,7.36
2023-03-07T17:59:24.402Z,7.36
2023-03-07T18:01:51.049Z,7.37
2023-03-07T18:04:17.623Z,7.37
2023-03-07T18:06:44.212Z,7.34
2023-03-07T18:09:10.873Z,7.37
2023-03-07T18:11:37.474Z,7.39
2023-03-07T18:14:04.035Z,7.41
2023-03-07T18:16:30.937Z,7.45
2023-03-07T18:19:00.014Z,7.47
2023-03-07T18:21:29.704Z,7.49
2023-03-07T18:23:57.110Z,7.52
2023-03-07T18:26:23.730Z,7.53
2023-03-07T18:28:53.261Z,7.56
2023-03-07T18:31:30.755Z,7.58
2023-03-07T18:33:57.425Z,7.56
2023-03-07T18:36:25.476Z,7.54
2023-03-07T18:38:52.605Z,7.49
2023-03-07T18:41:21.770Z,7.47
2023-03-07T18:43:48.699Z,7.43
2023-03-07T18:46:17.887Z,7.42
2023-03-07T18:48:44.897Z,7.38
2023-03-07T18:51:14.573Z,7.34
2023-03-07T18:53:41.435Z,7.39
2023-03-07T18:56:18.417Z,7.37
2023-03-07T18:58:46.323Z,7.41
2023-03-07T19:01:18.696Z,7.45
2023-03-07T19:03:47.355Z,7.45
2023-03-07T19:06:16.516Z,7.41
2023-03-07T19:08:43.227Z,7.42
2023-03-07T19:11:12.068Z,7.40
2023-03-07T19:13:39.333Z,7.39
2023-03-07T19:16:15.340Z,7.39
2023-03-07T19:18:43.316Z,7.37
2023-03-07T19:21:15.446Z,7.39
2023-03-07T19:23:42.519Z,7.36
2023-03-07T19:26:12.292Z,7.35
2023-03-07T19:28:40.305Z,7.37
2023-03-07T19:31:29.824Z,7.35
2023-03-07T19:33:57.429Z,7.36
2023-03-07T19:36:29.293Z,7.36
2023-03-07T19:38:59.007Z,7.48
2023-03-07T19:41:27.558Z,7.50
2023-03-07T19:43:56.101Z,7.44
2023-03-07T19:46:23.010Z,7.35
2023-03-07T19:48:49.738Z,7.31
2023-03-07T19:51:22.555Z,7.25
2023-03-07T19:53:49.645Z,7.24
2023-03-07T19:56:23.568Z,7.20
2023-03-07T19:58:50.794Z,7.24
2023-03-07T20:01:20.062Z,7.29
2023-03-07T20:03:47.363Z,7.16
2023-03-07T20:06:19.968Z,7.06
2023-03-07T20:08:51.242Z,7.11
2023-03-07T20:11:20.496Z,7.08
2023-03-07T20:13:48.504Z,6.97
2023-03-07T20:16:17.020Z,6.99
2023-03-07T20:18:43.873Z,6.94
2023-03-07T20:21:14.707Z,6.99
2023-03-07T20:23:44.687Z,6.87
2023-03-07T20:26:14.089Z,6.84
2023-03-07T20:28:41.275Z,6.80
2023-03-07T20:31:09.729Z,6.78
2023-03-07T20:33:38.477Z,6.76
2023-03-07T20:36:06.940Z,6.74
2023-03-07T20:38:37.592Z,6.71
2023-03-07T20:41:06.583Z,6.71
2023-03-07T20:43:33.924Z,6.72
2023-03-07T20:46:13.028Z,6.70
2023-03-07T20:48:40.831Z,6.69
2023-03-07T20:51:18.846Z,6.69
2023-03-07T20:53:51.175Z,6.61
2023-03-07T20:56:18.552Z,6.61
2023-03-07T20:58:45.282Z,6.62
2023-03-07T21:01:15.105Z,6.57
2023-03-07T21:03:41.857Z,6.54
2023-03-07T21:06:08.404Z,6.46
2023-03-07T21:08:36.663Z,6.38
2023-03-07T21:11:05.993Z,6.36
2023-03-07T21:13:35.916Z,6.34
2023-03-07T21:16:09.953Z,6.28
2023-03-07T21:18:37.136Z,6.27
2023-03-07T21:21:06.283Z,6.21
2023-03-07T21:23:33.352Z,6.18
2023-03-07T21:26:08.551Z,6.17
2023-03-07T21:28:35.516Z,6.17
2023-03-07T21:31:04.753Z,6.11
2023-03-07T21:33:32.252Z,6.11
2023-03-07T21:35:58.843Z,6.13
2023-03-07T21:38:26.102Z,6.11
2023-03-07T21:40:55.809Z,6.00
2023-03-07T21:43:22.452Z,5.97
2023-03-07T21:45:49.128Z,5.98
2023-03-07T21:48:19.403Z,5.95
2023-03-07T21:50:48.193Z,5.93
2023-03-07T21:53:14.778Z,5.90
2023-03-07T21:55:49.401Z,5.89
2023-03-07T21:58:15.931Z,5.88
2023-03-07T22:00:43.150Z,5.89
2023-03-07T22:03:09.799Z,5.85
2023-03-07T22:05:39.855Z,5.85
2023-03-07T22:08:06.856Z,5.92
2023-03-07T22:10:33.759Z,5.92
2023-03-07T22:13:00.718Z,5.94
2023-03-07T22:15:27.720Z,5.96
2023-03-07T22:17:54.320Z,5.93
2023-03-07T22:20:20.859Z,5.94
2023-03-07T22:22:47.549Z,6.03
2023-03-07T22:25:14.300Z,5.98
2023-03-07T22:27:43.524Z,6.01
2023-03-07T22:30:11.109Z,5.98
2023-03-07T22:32:37.789Z,6.09
2023-03-07T22:35:04.674Z,6.12
2023-03-07T22:37:31.164Z,6.12
2023-03-07T22:39:57.736Z,6.17
2023-03-07T22:42:24.282Z,6.20
2023-03-07T22:44:50.760Z,6.27
2023-03-07T22:47:17.313Z,6.25
2023-03-07T22:49:44.095Z,6.33
2023-03-07T22:52:10.892Z,6.35
2023-03-07T22:54:39.370Z,6.38
2023-03-07T22:57:05.962Z,6.40
2023-03-07T22:59:33.108Z,6.42
2023-03-07T23:01:59.640Z,6.44
2023-03-07T23:04:27.155Z,6.45
2023-03-07T23:06:53.869Z,6.45
2023-03-07T23:09:20.432Z,6.45
2023-03-07T23:11:48.225Z,6.45
2023-03-07T23:14:15.638Z,6.51
2023-03-07T23:16:42.754Z,6.58
2023-03-07T23:19:09.370Z,6.50
2023-03-07T23:21:36.035Z,6.44
2023-03-07T23:24:03.794Z,6.38
2023-03-07T23:26:36.965Z,6.41
2023-03-07T23:29:05.742Z,6.38
2023-03-07T23:31:36.445Z,6.40
2023-03-07T23:34:06.608Z,6.35
2023-03-07T23:36:34.008Z,6.35
2023-03-07T23:39:00.847Z,6.38
2023-03-07T23:41:27.900Z,6.52
2023-03-07T23:43:59.549Z,6.52
2023-03-07T23:46:27.389Z,6.55
2023-03-07T23:48:55.098Z,6.45
2023-03-07T23:51:22.448Z,6.48
2023-03-07T23:53:49.266Z,6.43
2023-03-07T23:56:16.140Z,6.36
2023-03-07T23:58:44.057Z,6.38
